createdAt,value
2018-06-08T00:01:08.423Z,17.80
2018-06-08T00:03:37.491Z,18.60
2018-06-08T00:06:06.545Z,18.87
2018-06-08T00:08:35.567Z,19.00
2018-06-08T00:11:04.615Z,19.27
2018-06-08T00:13:33.651Z,20.03
2018-06-08T00:16:02.895Z,20.37
2018-06-08T00:18:31.930Z,19.93
2018-06-08T00:21:01.018Z,19.60
2018-06-08T00:23:30.048Z,19.87
2018-06-08T00:25:59.112Z,23.47
2018-06-08T00:28:28.163Z,27.50
2018-06-08T00:30:56.999Z,28.17
2018-06-08T00:33:26.045Z,26.73
2018-06-08T00:35:55.103Z,24.70
2018-06-08T00:38:24.155Z,23.43
2018-06-08T00:40:53.203Z,23.40
2018-06-08T00:43:22.263Z,24.33
2018-06-08T00:45:51.320Z,24.20
2018-06-08T00:48:20.379Z,24.07
2018-06-08T00:50:49.444Z,23.57
2018-06-08T00:53:18.487Z,22.43
2018-06-08T00:55:47.563Z,21.73
2018-06-08T00:58:16.607Z,22.00
2018-06-08T01:00:45.667Z,21.53
2018-06-08T01:03:14.711Z,23.03
2018-06-08T01:05:43.759Z,23.07
2018-06-08T01:08:12.818Z,23.03
2018-06-08T01:10:41.863Z,23.43
2018-06-08T01:13:12.918Z,25.80
2018-06-08T01:15:42.608Z,25.77
2018-06-08T01:18:11.665Z,26.93
2018-06-08T01:20:40.704Z,24.93
2018-06-08T01:23:09.743Z,22.43
2018-06-08T01:25:38.783Z,24.67
2018-06-08T01:28:07.837Z,24.57
2018-06-08T01:30:36.938Z,23.60
2018-06-08T01:33:06.048Z,23.43
2018-06-08T01:35:35.091Z,22.03
2018-06-08T01:38:04.139Z,21.83
2018-06-08T01:40:33.171Z,23.53
2018-06-08T01:43:02.230Z,22.70
2018-06-08T01:45:31.264Z,22.47
2018-06-08T01:48:00.311Z,21.43
2018-06-08T01:50:29.351Z,22.10
2018-06-08T01:52:58.387Z,22.07
2018-06-08T01:55:27.427Z,21.37
2018-06-08T01:57:56.479Z,23.17
2018-06-08T02:00:25.992Z,23.50
2018-06-08T02:02:55.044Z,23.97
2018-06-08T02:05:24.088Z,22.07
2018-06-08T02:07:53.190Z,22.70
2018-06-08T02:10:22.317Z,21.83
2018-06-08T02:12:51.354Z,21.93
2018-06-08T02:15:20.387Z,22.03
2018-06-08T02:17:49.516Z,22.13
2018-06-08T02:20:18.578Z,22.23
2018-06-08T02:22:47.659Z,21.40
2018-06-08T02:25:16.704Z,22.57
2018-06-08T02:27:45.750Z,22.23
2018-06-08T02:30:14.836Z,20.67
2018-06-08T02:32:44.051Z,22.10
2018-06-08T02:35:12.897Z,24.50
2018-06-08T02:37:41.940Z,24.33
2018-06-08T02:40:10.985Z,26.27
2018-06-08T02:42:40.083Z,27.60
2018-06-08T02:45:09.195Z,28.90
2018-06-08T02:47:38.302Z,31.53
2018-06-08T02:50:07.352Z,29.97
2018-06-08T02:52:36.395Z,28.77
2018-06-08T02:55:06.214Z,28.40
2018-06-08T02:57:35.104Z,25.97
2018-06-08T03:00:04.296Z,27.53
2018-06-08T03:02:33.389Z,25.13
2018-06-08T03:05:02.471Z,25.07
2018-06-08T03:07:31.545Z,29.37
2018-06-08T03:10:00.591Z,28.17
2018-06-08T03:12:29.764Z,26.60
2018-06-08T03:14:58.813Z,27.17
2018-06-08T03:17:27.877Z,26.80
2018-06-08T03:19:56.934Z,27.27
2018-06-08T03:22:26.044Z,26.80
2018-06-08T03:24:55.054Z,25.83
2018-06-08T03:27:24.112Z,24.60
2018-06-08T03:29:53.352Z,26.77
2018-06-08T03:32:22.178Z,25.40
2018-06-08T03:34:51.232Z,27.10
2018-06-08T03:37:20.303Z,25.30
2018-06-08T03:39:49.336Z,27.27
2018-06-08T03:42:18.384Z,26.53
2018-06-08T03:44:47.511Z,25.73
2018-06-08T03:47:16.580Z,26.07
2018-06-08T03:49:45.620Z,25.30
2018-06-08T03:52:14.706Z,26.20
2018-06-08T03:54:43.759Z,25.13
2018-06-08T03:57:12.803Z,26.13
2018-06-08T03:59:41.856Z,27.43
2018-06-08T04:02:10.923Z,26.07
2018-06-08T04:04:39.968Z,26.70
2018-06-08T04:07:09.013Z,24.67
2018-06-08T04:09:38.084Z,25.03
2018-06-08T04:12:06.894Z,23.47
2018-06-08T04:14:35.947Z,24.00
2018-06-08T04:17:05.008Z,24.73
2018-06-08T04:19:34.119Z,23.57
2018-06-08T04:22:03.215Z,24.17
2018-06-08T04:24:32.275Z,24.03
2018-06-08T04:27:01.334Z,23.67
2018-06-08T04:29:30.380Z,23.13
2018-06-08T04:31:59.460Z,22.13
2018-06-08T04:34:28.736Z,24.00
2018-06-08T04:36:57.795Z,23.40
2018-06-08T04:39:26.875Z,23.33
2018-06-08T04:41:55.952Z,23.10
2018-06-08T04:44:25.056Z,24.07
2018-06-08T04:46:54.079Z,22.67
2018-06-08T04:49:23.148Z,21.73
2018-06-08T04:51:52.217Z,22.07
2018-06-08T04:54:21.267Z,22.73
2018-06-08T04:56:50.351Z,22.23
2018-06-08T04:59:19.400Z,21.90
2018-06-08T05:01:48.483Z,22.53
2018-06-08T05:04:17.558Z,22.60
2018-06-08T05:06:46.591Z,22.97
2018-06-08T05:09:15.671Z,22.53
2018-06-08T05:11:44.727Z,22.77
2018-06-08T05:14:13.793Z,23.00
2018-06-08T05:16:42.827Z,23.40
2018-06-08T05:19:11.910Z,22.40
2018-06-08T05:21:41.002Z,22.30
2018-06-08T05:24:10.072Z,24.30
2018-06-08T05:26:39.100Z,24.13
2018-06-08T05:29:08.157Z,24.33
2018-06-08T05:31:37.205Z,23.77
2018-06-08T05:34:06.271Z,24.40
2018-06-08T05:36:35.323Z,24.33
2018-06-08T05:39:07.752Z,24.83
2018-06-08T05:41:37.084Z,25.47
2018-06-08T05:44:06.388Z,25.27
2018-06-08T05:46:35.480Z,25.63
2018-06-08T05:49:04.523Z,27.10
2018-06-08T05:51:33.600Z,27.33
2018-06-08T05:54:02.703Z,27.30
2018-06-08T05:56:31.820Z,27.57
2018-06-08T05:59:00.946Z,27.23
2018-06-08T06:01:29.981Z,29.23
2018-06-08T06:03:59.030Z,28.17
2018-06-08T06:06:28.059Z,27.03
2018-06-08T06:08:57.132Z,26.00
2018-06-08T06:11:26.268Z,27.10
2018-06-08T06:13:55.311Z,26.62
2018-06-08T06:16:24.390Z,25.50
2018-06-08T06:18:53.471Z,25.27
2018-06-08T06:21:23.187Z,24.60
2018-06-08T06:23:52.250Z,25.83
2018-06-08T06:26:21.335Z,28.80
2018-06-08T06:28:50.369Z,27.47
2018-06-08T06:31:19.419Z,28.30
2018-06-08T06:33:48.481Z,26.67
2018-06-08T06:36:17.536Z,28.25
2018-06-08T06:38:46.580Z,29.77
2018-06-08T06:41:15.651Z,30.07
2018-06-08T06:43:44.705Z,29.55
2018-06-08T06:46:13.752Z,30.73
2018-06-08T06:48:42.788Z,29.83
2018-06-08T06:51:11.926Z,29.33
2018-06-08T06:53:40.947Z,31.70
2018-06-08T06:56:09.987Z,29.17
2018-06-08T06:58:39.023Z,28.75
2018-06-08T07:01:08.108Z,29.53
2018-06-08T07:03:37.168Z,28.00
2018-06-08T07:06:06.276Z,29.07
2018-06-08T07:08:35.335Z,30.08
2018-06-08T07:11:04.402Z,28.62
2018-06-08T07:13:33.447Z,29.12
2018-06-08T07:16:02.523Z,31.52
2018-06-08T07:18:31.589Z,30.60
2018-06-08T07:21:00.635Z,29.52
2018-06-08T07:23:29.711Z,27.98
2018-06-08T07:25:58.772Z,28.00
2018-06-08T07:28:27.825Z,27.85
2018-06-08T07:30:56.887Z,26.55
2018-06-08T07:33:25.944Z,25.43
2018-06-08T07:35:55.012Z,26.02
2018-06-08T07:38:24.057Z,27.55
2018-06-08T07:40:52.945Z,28.00
2018-06-08T07:43:21.988Z,29.63
2018-06-08T07:45:51.936Z,29.55
2018-06-08T07:48:21.056Z,29.30
2018-06-08T07:50:50.126Z,28.70
2018-06-08T07:53:18.931Z,30.68
2018-06-08T07:55:47.992Z,30.00
2018-06-08T07:58:17.039Z,29.50
2018-06-08T08:00:46.111Z,29.80
2018-06-08T08:03:15.144Z,30.20
2018-06-08T08:05:43.947Z,30.85
2018-06-08T08:08:12.986Z,29.87
2018-06-08T08:10:42.048Z,29.30
2018-06-08T08:13:11.107Z,29.80
2018-06-08T08:15:40.247Z,30.43
2018-06-08T08:18:09.332Z,30.92
2018-06-08T08:20:38.383Z,29.92
2018-06-08T08:23:07.463Z,30.43
2018-06-08T08:25:36.520Z,31.15
2018-06-08T08:28:05.631Z,31.20
2018-06-08T08:30:34.984Z,31.23
2018-06-08T08:33:04.061Z,30.37
2018-06-08T08:35:33.139Z,30.92
2018-06-08T08:38:02.209Z,31.62
2018-06-08T08:40:31.308Z,31.10
2018-06-08T08:43:00.360Z,30.40
2018-06-08T08:45:29.411Z,30.05
2018-06-08T08:47:58.467Z,30.25
2018-06-08T08:50:27.512Z,30.50
2018-06-08T08:52:56.576Z,30.17
2018-06-08T08:55:25.629Z,30.48
2018-06-08T08:57:54.746Z,29.32
2018-06-08T09:00:23.787Z,27.93
2018-06-08T09:02:52.850Z,26.95
2018-06-08T09:05:21.886Z,27.32
2018-06-08T09:07:50.940Z,27.35
2018-06-08T09:10:19.991Z,27.87
2018-06-08T09:12:49.059Z,26.30
2018-06-08T09:15:18.102Z,26.68
2018-06-08T09:17:47.216Z,25.62
2018-06-08T09:20:16.334Z,27.77
2018-06-08T09:22:45.422Z,27.37
2018-06-08T09:25:14.467Z,25.77
2018-06-08T09:27:43.523Z,28.25
2018-06-08T09:30:12.560Z,25.82
2018-06-08T09:32:41.632Z,25.50
2018-06-08T09:35:10.679Z,27.48
2018-06-08T09:37:39.790Z,27.05
2018-06-08T09:40:08.868Z,26.77
2018-06-08T09:42:37.916Z,26.60
2018-06-08T09:45:06.976Z,27.65
2018-06-08T09:47:36.025Z,29.40
2018-06-08T09:50:05.154Z,26.77
2018-06-08T09:52:34.241Z,27.15
2018-06-08T09:55:03.313Z,25.25
2018-06-08T09:57:32.463Z,29.30
2018-06-08T10:00:01.540Z,26.30
2018-06-08T10:02:30.668Z,28.52
2018-06-08T10:04:59.723Z,26.68
2018-06-08T10:07:28.801Z,24.95
2018-06-08T10:09:57.879Z,24.02
2018-06-08T10:12:26.947Z,24.00
2018-06-08T10:14:55.998Z,23.87
2018-06-08T10:17:25.129Z,23.60
2018-06-08T10:19:54.208Z,24.18
2018-06-08T10:22:23.098Z,24.45
2018-06-08T10:24:52.136Z,24.70
2018-06-08T10:27:21.340Z,25.52
2018-06-08T10:29:50.462Z,26.82
2018-06-08T10:32:19.513Z,23.55
2018-06-08T10:34:48.559Z,24.65
2018-06-08T10:37:17.623Z,23.25
2018-06-08T10:39:46.683Z,23.60
2018-06-08T10:42:15.743Z,21.17
2018-06-08T10:44:44.811Z,20.02
2018-06-08T10:47:13.863Z,20.17
2018-06-08T10:49:42.929Z,24.07
2018-06-08T10:52:12.852Z,22.40
2018-06-08T10:54:41.909Z,23.62
2018-06-08T10:57:10.979Z,20.85
2018-06-08T10:59:40.020Z,22.37
2018-06-08T11:02:09.155Z,22.37
2018-06-08T11:04:38.227Z,22.93
2018-06-08T11:07:07.288Z,22.25
2018-06-08T11:09:36.343Z,22.52
2018-06-08T11:12:05.493Z,21.73
2018-06-08T11:14:34.582Z,22.07
2018-06-08T11:17:03.644Z,21.97
2018-06-08T11:19:32.736Z,21.77
2018-06-08T11:22:01.798Z,20.65
2018-06-08T11:24:30.856Z,18.40
2018-06-08T11:26:59.999Z,18.32
2018-06-08T11:29:29.079Z,19.82
2018-06-08T11:31:58.136Z,18.55
2018-06-08T11:34:27.203Z,16.95
2018-06-08T11:36:56.316Z,17.90
2018-06-08T11:39:25.378Z,17.67
2018-06-08T11:41:54.425Z,16.12
2018-06-08T11:44:23.475Z,16.50
2018-06-08T11:46:52.545Z,15.53
2018-06-08T11:49:21.609Z,15.78
2018-06-08T11:51:50.657Z,17.57
2018-06-08T11:54:19.703Z,16.52
2018-06-08T11:56:48.812Z,15.63
2018-06-08T11:59:17.920Z,14.58
2018-06-08T12:01:47.035Z,14.38
2018-06-08T12:04:16.110Z,17.15
2018-06-08T12:06:45.199Z,16.50
2018-06-08T12:09:14.110Z,15.95
2018-06-08T12:11:43.192Z,15.68
2018-06-08T12:14:12.261Z,15.93
2018-06-08T12:16:41.342Z,16.50
2018-06-08T12:19:10.419Z,14.78
2018-06-08T12:21:39.484Z,14.63
2018-06-08T12:24:08.607Z,15.18
2018-06-08T12:26:37.709Z,15.45
2018-06-08T12:29:06.771Z,14.85
2018-06-08T12:31:35.820Z,13.70
2018-06-08T12:34:04.956Z,13.93
2018-06-08T12:36:33.991Z,13.48
2018-06-08T12:39:03.059Z,13.20
2018-06-08T12:41:32.107Z,13.20
2018-06-08T12:44:01.164Z,12.90
2018-06-08T12:46:30.222Z,12.88
2018-06-08T12:48:59.151Z,12.93
2018-06-08T12:51:28.173Z,12.05
2018-06-08T12:53:57.254Z,12.30
2018-06-08T12:56:26.219Z,11.73
2018-06-08T12:58:55.276Z,12.45
2018-06-08T13:01:24.392Z,11.15
2018-06-08T13:03:53.440Z,11.70
2018-06-08T13:06:22.471Z,11.05
2018-06-08T13:08:51.563Z,12.35
2018-06-08T13:11:20.614Z,12.10
2018-06-08T13:13:49.692Z,12.60
2018-06-08T13:16:18.776Z,11.45
2018-06-08T13:18:47.840Z,12.03
2018-06-08T13:21:17.006Z,11.90
2018-06-08T13:23:46.016Z,11.90
2018-06-08T13:26:15.061Z,10.95
2018-06-08T13:28:44.111Z,12.55
2018-06-08T13:31:13.258Z,11.70
2018-06-08T13:33:42.302Z,11.40
2018-06-08T13:36:11.347Z,11.48
2018-06-08T13:38:40.608Z,11.55
2018-06-08T13:41:09.660Z,11.00
2018-06-08T13:43:38.719Z,11.50
2018-06-08T13:46:23.644Z,11.55
2018-06-08T13:48:52.711Z,10.88
2018-06-08T13:51:21.790Z,10.98
2018-06-08T13:53:50.844Z,10.38
2018-06-08T13:56:19.944Z,9.83
2018-06-08T13:58:48.994Z,10.40
2018-06-08T14:01:18.052Z,10.80
2018-06-08T14:03:47.160Z,10.80
2018-06-08T14:06:16.200Z,10.00
2018-06-08T14:08:45.275Z,9.80
2018-06-08T14:11:14.258Z,10.18
2018-06-08T14:13:43.324Z,10.38
2018-06-08T14:16:12.403Z,10.03
2018-06-08T14:18:41.533Z,10.20
2018-06-08T14:21:10.580Z,10.75
2018-06-08T14:23:39.632Z,10.70
2018-06-08T14:26:08.700Z,10.72
2018-06-08T14:28:37.742Z,10.40
2018-06-08T14:31:06.807Z,10.32
2018-06-08T14:33:35.852Z,9.65
2018-06-08T14:36:04.899Z,9.80
2018-06-08T14:38:33.967Z,10.00
2018-06-08T14:41:03.026Z,9.28
2018-06-08T14:43:32.071Z,14.87
2018-06-08T14:46:01.126Z,8.28
2018-06-08T14:48:30.171Z,8.98
2018-06-08T14:50:59.347Z,8.38
2018-06-08T14:53:28.467Z,8.13
2018-06-08T14:55:57.463Z,8.30
2018-06-08T14:58:26.512Z,8.30
2018-06-08T15:00:55.588Z,8.23
2018-06-08T15:03:24.658Z,8.35
2018-06-08T15:05:53.734Z,8.53
2018-06-08T15:08:22.804Z,8.95
2018-06-08T15:10:51.868Z,8.38
2018-06-08T15:13:20.936Z,8.33
2018-06-08T15:15:50.007Z,8.88
2018-06-08T15:18:19.055Z,8.93
2018-06-08T15:20:48.122Z,9.25
2018-06-08T15:23:17.160Z,9.08
2018-06-08T15:25:46.243Z,10.00
2018-06-08T15:28:15.291Z,10.08
2018-06-08T15:30:44.347Z,10.85
2018-06-08T15:33:13.392Z,10.60
2018-06-08T15:35:42.445Z,10.43
2018-06-08T15:38:11.500Z,10.58
2018-06-08T15:40:40.652Z,11.03
2018-06-08T15:43:09.688Z,11.10
2018-06-08T15:45:38.747Z,10.90
2018-06-08T15:48:07.836Z,11.38
2018-06-08T15:50:36.992Z,11.43
2018-06-08T15:53:06.140Z,11.48
2018-06-08T15:55:35.203Z,11.03
2018-06-08T15:58:04.351Z,10.08
2018-06-08T16:00:33.400Z,10.65
2018-06-08T16:03:02.448Z,10.70
2018-06-08T16:05:31.515Z,10.50
2018-06-08T16:08:00.585Z,10.48
2018-06-08T16:10:29.807Z,10.63
2018-06-08T16:12:58.851Z,9.80
2018-06-08T16:15:27.973Z,10.60
2018-06-08T16:17:57.049Z,9.68
2018-06-08T16:20:26.158Z,9.48
2018-06-08T16:22:55.231Z,10.18
2018-06-08T16:25:24.139Z,10.20
2018-06-08T16:27:53.195Z,10.35
2018-06-08T16:30:22.260Z,9.85
2018-06-08T16:32:51.106Z,9.78
2018-06-08T16:35:20.171Z,10.60
2018-06-08T16:37:49.232Z,10.03
2018-06-08T16:40:18.298Z,9.63
2018-06-08T16:42:47.162Z,9.65
2018-06-08T16:45:16.199Z,10.20
2018-06-08T16:47:45.303Z,10.10
2018-06-08T16:50:14.119Z,9.93
2018-06-08T16:52:43.302Z,9.78
2018-06-08T16:55:12.357Z,9.68
2018-06-08T16:57:41.444Z,9.23
2018-06-08T17:00:10.492Z,9.90
2018-06-08T17:02:39.869Z,8.95
2018-06-08T17:05:08.976Z,9.08
2018-06-08T17:07:38.075Z,9.70
2018-06-08T17:10:07.119Z,9.13
2018-06-08T17:12:36.191Z,6.40
2018-06-08T17:15:05.732Z,6.87
2018-06-08T17:17:34.871Z,6.15
2018-06-08T17:20:03.931Z,6.03
2018-06-08T17:22:32.992Z,6.55
2018-06-08T17:25:02.028Z,6.50
2018-06-08T17:27:31.119Z,7.33
2018-06-08T17:30:00.157Z,7.67
2018-06-08T17:32:29.235Z,8.00
2018-06-08T17:34:58.275Z,9.75
2018-06-08T17:37:27.249Z,10.18
2018-06-08T17:39:56.319Z,10.08
2018-06-08T17:42:25.447Z,9.98
2018-06-08T17:44:54.510Z,9.80
2018-06-08T17:47:23.383Z,10.27
2018-06-08T17:49:52.448Z,10.40
2018-06-08T17:52:21.767Z,10.50
2018-06-08T17:54:50.799Z,10.73
2018-06-08T17:57:19.900Z,11.40
2018-06-08T17:59:48.883Z,11.87
2018-06-08T18:02:18.012Z,12.27
2018-06-08T18:04:47.075Z,12.33
2018-06-08T18:07:18.935Z,12.53
2018-06-08T18:09:48.070Z,12.70
2018-06-08T18:12:21.092Z,13.63
2018-06-08T18:14:50.168Z,13.50
2018-06-08T18:17:19.225Z,13.33
2018-06-08T18:19:48.292Z,14.53
2018-06-08T18:22:17.330Z,13.33
2018-06-08T18:24:47.335Z,13.60
2018-06-08T18:27:16.454Z,13.00
2018-06-08T18:29:45.495Z,13.17
2018-06-08T18:32:14.579Z,12.93
2018-06-08T18:34:43.796Z,14.67
2018-06-08T18:37:12.858Z,14.23
2018-06-08T18:39:41.987Z,13.47
2018-06-08T18:42:11.092Z,14.50
2018-06-08T18:44:40.157Z,13.40
2018-06-08T18:47:09.219Z,13.13
2018-06-08T18:49:38.280Z,13.03
2018-06-08T18:52:07.338Z,13.73
2018-06-08T18:54:36.396Z,13.63
2018-06-08T18:57:05.666Z,12.90
2018-06-08T18:59:34.774Z,13.17
2018-06-08T19:02:03.980Z,13.93
2018-06-08T19:04:33.131Z,14.03
2018-06-08T19:07:02.196Z,13.97
2018-06-08T19:09:31.343Z,14.07
2018-06-08T19:12:00.401Z,13.77
2018-06-08T19:14:29.512Z,13.40
2018-06-08T19:16:58.583Z,13.80
2018-06-08T19:19:27.700Z,13.83
2018-06-08T19:21:56.744Z,13.50
2018-06-08T19:24:25.812Z,14.30
2018-06-08T19:26:54.908Z,14.23
2018-06-08T19:29:24.055Z,13.87
2018-06-08T19:31:53.115Z,14.70
2018-06-08T19:34:22.175Z,13.90
2018-06-08T19:36:51.242Z,14.80
2018-06-08T19:39:20.399Z,15.03
2018-06-08T19:41:49.448Z,14.53
2018-06-08T19:44:18.599Z,14.47
2018-06-08T19:46:47.751Z,15.03
2018-06-08T19:49:16.807Z,13.97
2018-06-08T19:51:45.975Z,15.33
2018-06-08T19:54:15.028Z,15.67
2018-06-08T19:56:44.175Z,14.50
2018-06-08T19:59:13.223Z,14.63
2018-06-08T20:01:42.428Z,13.70
2018-06-08T20:04:11.459Z,14.03
2018-06-08T20:06:40.667Z,14.67
2018-06-08T20:09:09.772Z,16.67
2018-06-08T20:11:38.823Z,15.37
2018-06-08T20:14:07.978Z,15.90
2018-06-08T20:16:37.014Z,15.13
2018-06-08T20:19:06.139Z,16.37
2018-06-08T20:21:35.135Z,15.17
2018-06-08T20:24:04.202Z,14.93
2018-06-08T20:26:33.279Z,15.07
2018-06-08T20:29:02.407Z,15.57
2018-06-08T20:31:31.444Z,15.33
2018-06-08T20:34:00.495Z,14.97
2018-06-08T20:36:29.563Z,15.57
2018-06-08T20:38:58.744Z,16.43
2018-06-08T20:41:27.868Z,15.67
2018-06-08T20:43:57.043Z,15.97
2018-06-08T20:46:26.103Z,15.93
2018-06-08T20:48:55.153Z,15.50
2018-06-08T20:51:24.199Z,15.80
2018-06-08T20:53:53.267Z,16.40
2018-06-08T20:56:22.383Z,15.70
2018-06-08T20:58:51.400Z,15.47
2018-06-08T21:01:20.451Z,16.03
2018-06-08T21:03:49.497Z,15.27
2018-06-08T21:06:18.542Z,15.63
2018-06-08T21:08:47.635Z,14.60
2018-06-08T21:11:16.721Z,15.13
2018-06-08T21:13:45.764Z,15.63
2018-06-08T21:16:14.847Z,16.33
2018-06-08T21:18:43.892Z,15.27
2018-06-08T21:21:12.951Z,15.90
2018-06-08T21:23:42.077Z,15.63
2018-06-08T21:26:11.138Z,15.23
2018-06-08T21:28:40.203Z,15.40
2018-06-08T21:31:09.291Z,14.80
2018-06-08T21:33:38.186Z,15.40
2018-06-08T21:36:07.235Z,15.50
2018-06-08T21:38:36.326Z,16.30
2018-06-08T21:41:05.375Z,15.30
2018-06-08T21:43:34.440Z,15.40
2018-06-08T21:46:03.548Z,16.43
2018-06-08T21:48:32.609Z,15.90
2018-06-08T21:51:01.659Z,15.50
2018-06-08T21:53:30.699Z,15.50
2018-06-08T21:55:59.819Z,16.40
2018-06-08T21:58:28.900Z,16.80
2018-06-08T22:00:58.456Z,15.63
2018-06-08T22:03:27.499Z,16.33
2018-06-08T22:05:56.559Z,16.37
2018-06-08T22:08:25.600Z,15.60
2018-06-08T22:10:54.652Z,15.07
2018-06-08T22:13:23.703Z,15.90
2018-06-08T22:15:52.755Z,16.07
2018-06-08T22:18:21.815Z,16.17
2018-06-08T22:20:50.867Z,15.37
2018-06-08T22:23:19.932Z,16.17
2018-06-08T22:25:48.969Z,16.70
2018-06-08T22:28:18.091Z,16.17
2018-06-08T22:30:47.348Z,15.63
2018-06-08T22:33:16.412Z,15.80
2018-06-08T22:35:45.467Z,15.70
2018-06-08T22:38:14.531Z,15.30
2018-06-08T22:40:43.595Z,16.27
2018-06-08T22:43:12.639Z,15.60
2018-06-08T22:45:41.715Z,16.30
2018-06-08T22:48:10.768Z,18.07
2018-06-08T22:50:39.855Z,17.37
2018-06-08T22:53:08.984Z,16.43
2018-06-08T22:55:38.047Z,16.93
2018-06-08T22:58:07.101Z,16.90
2018-06-08T23:00:36.192Z,16.57
2018-06-08T23:03:05.240Z,16.87
2018-06-08T23:05:34.315Z,17.30
2018-06-08T23:08:03.444Z,16.60
2018-06-08T23:10:32.544Z,17.37
2018-06-08T23:13:01.612Z,16.03
2018-06-08T23:15:30.668Z,15.40
2018-06-08T23:17:59.727Z,16.90
2018-06-08T23:20:28.784Z,16.50
2018-06-08T23:22:57.847Z,15.70
2018-06-08T23:25:26.899Z,16.53
2018-06-08T23:27:55.955Z,15.77
2018-06-08T23:30:25.024Z,16.23
2018-06-08T23:32:54.107Z,14.73
2018-06-08T23:35:23.148Z,15.67
2018-06-08T23:37:52.224Z,15.83
2018-06-08T23:40:21.280Z,16.43
2018-06-08T23:42:50.494Z,16.27
2018-06-08T23:45:19.536Z,15.93
2018-06-08T23:47:48.593Z,15.80
2018-06-08T23:50:17.643Z,15.47
2018-06-08T23:52:46.700Z,16.53
2018-06-08T23:55:15.772Z,15.67
2018-06-08T23:57:44.883Z,15.90
